createdAt,value
2018-07-21T00:00:00.375Z,1022.65536008
2018-07-21T00:00:12.847Z,1022.65536008
2018-07-21T00:00:25.409Z,1022.65536008
2018-07-21T00:00:37.853Z,1022.65536008
2018-07-21T00:00:50.284Z,1022.65536008
2018-07-21T00:01:02.766Z,1022.65536008
2018-07-21T00:01:15.204Z,1022.65536008
2018-07-21T00:01:27.610Z,1022.65536008
2018-07-21T00:01:40.038Z,1022.65536008
2018-07-21T00:01:52.436Z,1022.65536008
2018-07-21T00:02:04.965Z,1022.65536008
2018-07-21T00:02:17.506Z,1022.65536008
2018-07-21T00:02:30.592Z,1022.65536008
2018-07-21T00:02:43.012Z,1022.65536008
2018-07-21T00:02:55.425Z,1022.65536008
2018-07-21T00:03:07.835Z,1022.6214962
2018-07-21T00:03:20.236Z,1022.6214962
2018-07-21T00:03:32.624Z,1022.6214962
2018-07-21T00:03:45.187Z,1022.6214962
2018-07-21T00:03:57.578Z,1022.6214962
2018-07-21T00:04:09.974Z,1022.72308784
2018-07-21T00:04:22.382Z,1022.72308784
2018-07-21T00:04:34.833Z,1022.72308784
2018-07-21T00:04:47.222Z,1022.72308784
2018-07-21T00:04:59.629Z,1022.72308784
2018-07-21T00:05:12.070Z,1022.72308784
2018-07-21T00:05:24.530Z,1022.72308784
2018-07-21T00:05:36.923Z,1022.72308784
2018-07-21T00:05:49.322Z,1022.72308784
2018-07-21T00:06:01.757Z,1022.72308784
2018-07-21T00:06:14.153Z,1022.72308784
2018-07-21T00:06:26.578Z,1022.72308784
2018-07-21T00:06:38.997Z,1022.72308784
2018-07-21T00:06:51.393Z,1022.72308784
2018-07-21T00:07:03.782Z,1022.6214962
2018-07-21T00:07:16.193Z,1022.6214962
2018-07-21T00:07:28.599Z,1022.6214962
2018-07-21T00:07:41.145Z,1022.6214962
2018-07-21T00:07:53.556Z,1022.6214962
2018-07-21T00:08:05.961Z,1022.6214962
2018-07-21T00:08:18.364Z,1022.6214962
2018-07-21T00:08:30.775Z,1022.6214962
2018-07-21T00:08:43.251Z,1022.6214962
2018-07-21T00:08:55.671Z,1022.6214962
2018-07-21T00:09:08.267Z,1022.6214962
2018-07-21T00:09:20.666Z,1022.6214962
2018-07-21T00:09:33.053Z,1022.6214962
2018-07-21T00:09:45.440Z,1022.6214962
2018-07-21T00:09:57.844Z,1022.6214962
2018-07-21T00:10:10.255Z,1022.6214962
2018-07-21T00:10:22.665Z,1022.6214962
2018-07-21T00:10:35.070Z,1022.6214962
2018-07-21T00:10:47.470Z,1022.6214962
2018-07-21T00:11:00.041Z,1022.58763232
2018-07-21T00:11:12.438Z,1022.58763232
2018-07-21T00:11:25.329Z,1022.58763232
2018-07-21T00:11:37.739Z,1022.58763232
2018-07-21T00:11:50.134Z,1022.58763232
2018-07-21T00:12:02.569Z,1022.58763232
2018-07-21T00:12:14.983Z,1022.58763232
2018-07-21T00:12:27.382Z,1022.58763232
2018-07-21T00:12:39.785Z,1022.58763232
2018-07-21T00:12:52.198Z,1022.58763232
2018-07-21T00:13:04.759Z,1022.55376844
2018-07-21T00:13:17.159Z,1022.55376844
2018-07-21T00:13:29.562Z,1022.55376844
2018-07-21T00:13:42.021Z,1022.55376844
2018-07-21T00:13:54.443Z,1022.55376844
2018-07-21T00:14:06.928Z,1022.58763232
2018-07-21T00:14:20.041Z,1022.58763232
2018-07-21T00:14:32.487Z,1022.58763232
2018-07-21T00:14:44.888Z,1022.58763232
2018-07-21T00:14:57.308Z,1022.58763232
2018-07-21T00:15:09.736Z,1022.65536008
2018-07-21T00:15:22.153Z,1022.65536008
2018-07-21T00:15:34.723Z,1022.65536008
2018-07-21T00:15:47.114Z,1022.65536008
2018-07-21T00:15:59.529Z,1022.55376844
2018-07-21T00:16:11.916Z,1022.55376844
2018-07-21T00:16:24.303Z,1022.55376844
2018-07-21T00:16:36.724Z,1022.55376844
2018-07-21T00:16:49.135Z,1022.55376844
2018-07-21T00:17:01.526Z,1022.58763232
2018-07-21T00:17:13.928Z,1022.58763232
2018-07-21T00:17:26.376Z,1022.58763232
2018-07-21T00:17:38.900Z,1022.58763232
2018-07-21T00:17:51.356Z,1022.58763232
2018-07-21T00:18:03.769Z,1022.51990455
2018-07-21T00:18:16.229Z,1022.51990455
2018-07-21T00:18:28.615Z,1022.51990455
2018-07-21T00:18:41.003Z,1022.51990455
2018-07-21T00:18:53.394Z,1022.51990455
2018-07-21T00:19:05.828Z,1022.55376844
2018-07-21T00:19:18.243Z,1022.55376844
2018-07-21T00:19:30.648Z,1022.55376844
2018-07-21T00:19:43.066Z,1022.55376844
2018-07-21T00:19:55.463Z,1022.55376844
2018-07-21T00:20:07.858Z,1022.51990455
2018-07-21T00:20:20.258Z,1022.51990455
2018-07-21T00:20:32.664Z,1022.51990455
2018-07-21T00:20:45.058Z,1022.51990455
2018-07-21T00:20:57.477Z,1022.51990455
2018-07-21T00:21:09.886Z,1022.65536008
2018-07-21T00:21:22.289Z,1022.65536008
2018-07-21T00:21:34.687Z,1022.65536008
2018-07-21T00:21:47.134Z,1022.65536008
2018-07-21T00:21:59.543Z,1022.51990455
2018-07-21T00:22:11.976Z,1022.51990455
2018-07-21T00:22:24.925Z,1022.51990455
2018-07-21T00:22:37.322Z,1022.51990455
2018-07-21T00:22:49.739Z,1022.51990455
2018-07-21T00:23:02.124Z,1022.55376844
2018-07-21T00:23:14.529Z,1022.55376844
2018-07-21T00:23:26.917Z,1022.55376844
2018-07-21T00:23:39.308Z,1022.55376844
2018-07-21T00:23:51.740Z,1022.55376844
2018-07-21T00:24:04.132Z,1022.58763232
2018-07-21T00:24:16.573Z,1022.58763232
2018-07-21T00:24:28.977Z,1022.58763232
2018-07-21T00:24:41.600Z,1022.58763232
2018-07-21T00:24:54.005Z,1022.58763232
2018-07-21T00:25:06.416Z,1022.65536008
2018-07-21T00:25:18.899Z,1022.65536008
2018-07-21T00:25:31.346Z,1022.65536008
2018-07-21T00:25:43.752Z,1022.65536008
2018-07-21T00:25:56.147Z,1022.65536008
2018-07-21T00:26:08.541Z,1022.68922396
2018-07-21T00:26:20.944Z,1022.68922396
2018-07-21T00:26:33.354Z,1022.68922396
2018-07-21T00:26:45.744Z,1022.68922396
2018-07-21T00:26:58.144Z,1022.68922396
2018-07-21T00:27:10.536Z,1022.72308784
2018-07-21T00:27:22.913Z,1022.72308784
2018-07-21T00:27:35.304Z,1022.72308784
2018-07-21T00:27:47.705Z,1022.72308784
2018-07-21T00:28:00.123Z,1022.79081561
2018-07-21T00:28:12.512Z,1022.79081561
2018-07-21T00:28:24.901Z,1022.79081561
2018-07-21T00:28:37.295Z,1022.79081561
2018-07-21T00:28:49.693Z,1022.79081561
2018-07-21T00:29:02.085Z,1022.72308784
2018-07-21T00:29:14.515Z,1022.72308784
2018-07-21T00:29:26.922Z,1022.72308784
2018-07-21T00:29:39.352Z,1022.72308784
2018-07-21T00:29:51.756Z,1022.72308784
2018-07-21T00:30:04.292Z,1022.72308784
2018-07-21T00:30:16.681Z,1022.72308784
2018-07-21T00:30:29.086Z,1022.72308784
2018-07-21T00:30:41.493Z,1022.72308784
2018-07-21T00:30:54.114Z,1022.72308784
2018-07-21T00:31:06.515Z,1022.72308784
2018-07-21T00:31:18.952Z,1022.72308784
2018-07-21T00:31:31.373Z,1022.72308784
2018-07-21T00:31:43.758Z,1022.72308784
2018-07-21T00:31:56.294Z,1022.72308784
2018-07-21T00:32:08.712Z,1022.75695173
2018-07-21T00:32:21.138Z,1022.75695173
2018-07-21T00:32:33.551Z,1022.75695173
2018-07-21T00:32:45.947Z,1022.75695173
2018-07-21T00:32:58.347Z,1022.75695173
2018-07-21T00:33:10.804Z,1022.65536008
2018-07-21T00:33:23.197Z,1022.65536008
2018-07-21T00:33:35.577Z,1022.65536008
2018-07-21T00:33:48.003Z,1022.65536008
2018-07-21T00:34:00.398Z,1022.65536008
2018-07-21T00:34:12.786Z,1022.65536008
2018-07-21T00:34:25.192Z,1022.65536008
2018-07-21T00:34:37.616Z,1022.65536008
2018-07-21T00:34:50.013Z,1022.65536008
2018-07-21T00:35:02.440Z,1022.72308784
2018-07-21T00:35:14.849Z,1022.72308784
2018-07-21T00:35:27.239Z,1022.72308784
2018-07-21T00:35:39.641Z,1022.72308784
2018-07-21T00:35:52.045Z,1022.72308784
2018-07-21T00:36:04.461Z,1022.68922396
2018-07-21T00:36:16.870Z,1022.68922396
2018-07-21T00:36:29.276Z,1022.68922396
2018-07-21T00:36:41.698Z,1022.68922396
2018-07-21T00:36:54.116Z,1022.68922396
2018-07-21T00:37:06.567Z,1022.75695173
2018-07-21T00:37:18.982Z,1022.75695173
2018-07-21T00:37:31.365Z,1022.75695173
2018-07-21T00:37:43.776Z,1022.75695173
2018-07-21T00:37:56.198Z,1022.75695173
2018-07-21T00:38:08.617Z,1022.82467949
2018-07-21T00:38:21.017Z,1022.82467949
2018-07-21T00:38:33.403Z,1022.82467949
2018-07-21T00:38:45.829Z,1022.82467949
2018-07-21T00:38:58.249Z,1022.82467949
2018-07-21T00:39:10.729Z,1022.82467949
2018-07-21T00:39:23.131Z,1022.82467949
2018-07-21T00:39:35.541Z,1022.82467949
2018-07-21T00:39:47.928Z,1022.82467949
2018-07-21T00:40:00.324Z,1022.68922396
2018-07-21T00:40:12.721Z,1022.68922396
2018-07-21T00:40:25.104Z,1022.68922396
2018-07-21T00:40:37.495Z,1022.68922396
2018-07-21T00:40:49.886Z,1022.68922396
2018-07-21T00:41:02.285Z,1022.82467949
2018-07-21T00:41:14.729Z,1022.82467949
2018-07-21T00:41:27.165Z,1022.82467949
2018-07-21T00:41:39.561Z,1022.82467949
2018-07-21T00:41:51.964Z,1022.82467949
2018-07-21T00:42:04.491Z,1022.82467949
2018-07-21T00:42:16.882Z,1022.82467949
2018-07-21T00:42:29.273Z,1022.82467949
2018-07-21T00:42:41.658Z,1022.82467949
2018-07-21T00:42:54.047Z,1022.82467949
2018-07-21T00:43:06.476Z,1022.65536008
2018-07-21T00:43:18.906Z,1022.65536008
2018-07-21T00:43:31.313Z,1022.65536008
2018-07-21T00:43:43.855Z,1022.65536008
2018-07-21T00:43:56.256Z,1022.65536008
2018-07-21T00:44:08.653Z,1022.82467949
2018-07-21T00:44:21.039Z,1022.82467949
2018-07-21T00:44:33.623Z,1022.82467949
2018-07-21T00:44:46.012Z,1022.82467949
2018-07-21T00:44:58.413Z,1022.82467949
2018-07-21T00:45:10.816Z,1022.75695173
2018-07-21T00:45:23.222Z,1022.75695173
2018-07-21T00:45:35.613Z,1022.75695173
2018-07-21T00:45:48.020Z,1022.75695173
2018-07-21T00:46:00.422Z,1022.72308784
2018-07-21T00:46:12.818Z,1022.72308784
2018-07-21T00:46:25.228Z,1022.72308784
2018-07-21T00:46:37.617Z,1022.72308784
2018-07-21T00:46:50.012Z,1022.72308784
2018-07-21T00:47:02.431Z,1022.72308784
2018-07-21T00:47:14.829Z,1022.72308784
2018-07-21T00:47:27.241Z,1022.72308784
2018-07-21T00:47:39.630Z,1022.72308784
2018-07-21T00:47:52.084Z,1022.72308784
2018-07-21T00:48:04.475Z,1022.75695173
2018-07-21T00:48:16.870Z,1022.75695173
2018-07-21T00:48:29.271Z,1022.75695173
2018-07-21T00:48:41.672Z,1022.75695173
2018-07-21T00:48:54.182Z,1022.75695173
2018-07-21T00:49:06.573Z,1022.72308784
2018-07-21T00:49:19.040Z,1022.72308784
2018-07-21T00:49:31.448Z,1022.72308784
2018-07-21T00:49:43.843Z,1022.72308784
2018-07-21T00:49:56.236Z,1022.72308784
2018-07-21T00:50:08.643Z,1022.68922396
2018-07-21T00:50:21.052Z,1022.68922396
2018-07-21T00:50:33.497Z,1022.68922396
2018-07-21T00:50:45.884Z,1022.68922396
2018-07-21T00:50:58.275Z,1022.68922396
2018-07-21T00:51:10.671Z,1022.68922396
2018-07-21T00:51:23.074Z,1022.68922396
2018-07-21T00:51:35.504Z,1022.68922396
2018-07-21T00:51:47.900Z,1022.68922396
2018-07-21T00:52:00.303Z,1022.72308784
2018-07-21T00:52:12.697Z,1022.72308784
2018-07-21T00:52:25.085Z,1022.72308784
2018-07-21T00:52:37.481Z,1022.72308784
2018-07-21T00:52:49.897Z,1022.72308784
2018-07-21T00:53:02.289Z,1022.75695173
2018-07-21T00:53:14.692Z,1022.75695173
2018-07-21T00:53:27.099Z,1022.75695173
2018-07-21T00:53:39.775Z,1022.75695173
2018-07-21T00:53:52.162Z,1022.75695173
2018-07-21T00:54:04.546Z,1022.68922396
2018-07-21T00:54:16.949Z,1022.68922396
2018-07-21T00:54:29.363Z,1022.68922396
2018-07-21T00:54:41.807Z,1022.68922396
2018-07-21T00:54:54.208Z,1022.68922396
2018-07-21T00:55:06.644Z,1022.72308784
2018-07-21T00:55:19.031Z,1022.72308784
2018-07-21T00:55:31.426Z,1022.72308784
2018-07-21T00:55:43.824Z,1022.72308784
2018-07-21T00:55:56.241Z,1022.72308784
2018-07-21T00:56:08.664Z,1022.75695173
2018-07-21T00:56:21.075Z,1022.75695173
2018-07-21T00:56:33.461Z,1022.75695173
2018-07-21T00:56:45.846Z,1022.75695173
2018-07-21T00:56:58.236Z,1022.75695173
2018-07-21T00:57:10.760Z,1022.79081561
2018-07-21T00:57:23.818Z,1022.79081561
2018-07-21T00:57:36.313Z,1022.79081561
2018-07-21T00:57:48.844Z,1022.79081561
2018-07-21T00:58:01.269Z,1022.75695173
2018-07-21T00:58:13.686Z,1022.75695173
2018-07-21T00:58:26.094Z,1022.75695173
2018-07-21T00:58:38.489Z,1022.75695173
2018-07-21T00:58:50.910Z,1022.75695173
2018-07-21T00:59:03.319Z,1022.79081561
2018-07-21T00:59:16.070Z,1022.79081561
2018-07-21T00:59:28.477Z,1022.79081561
2018-07-21T00:59:40.892Z,1022.79081561
2018-07-21T00:59:53.288Z,1022.79081561
2018-07-21T01:00:05.710Z,1022.79081561
2018-07-21T01:00:18.177Z,1022.79081561
2018-07-21T01:00:30.679Z,1022.79081561
2018-07-21T01:00:43.098Z,1022.79081561
2018-07-21T01:00:55.526Z,1022.79081561
2018-07-21T01:01:07.972Z,1022.79081561
2018-07-21T01:01:20.387Z,1022.79081561
2018-07-21T01:01:32.776Z,1022.79081561
2018-07-21T01:01:45.182Z,1022.79081561
2018-07-21T01:01:57.692Z,1022.79081561
2018-07-21T01:02:10.087Z,1022.79081561
2018-07-21T01:02:22.506Z,1022.79081561
2018-07-21T01:02:34.908Z,1022.79081561
2018-07-21T01:02:47.324Z,1022.79081561
2018-07-21T01:02:59.740Z,1022.72308784
2018-07-21T01:03:12.148Z,1022.72308784
2018-07-21T01:03:24.549Z,1022.72308784
2018-07-21T01:03:36.942Z,1022.72308784
2018-07-21T01:03:49.484Z,1022.72308784
2018-07-21T01:04:01.874Z,1022.72308784
2018-07-21T01:04:14.297Z,1022.72308784
2018-07-21T01:04:26.718Z,1022.72308784
2018-07-21T01:04:39.131Z,1022.72308784
2018-07-21T01:04:51.540Z,1022.72308784
2018-07-21T01:05:03.940Z,1022.68922396
2018-07-21T01:05:16.349Z,1022.68922396
2018-07-21T01:05:28.747Z,1022.68922396
2018-07-21T01:05:41.141Z,1022.68922396
2018-07-21T01:05:53.541Z,1022.68922396
2018-07-21T01:06:05.953Z,1022.68922396
2018-07-21T01:06:18.403Z,1022.68922396
2018-07-21T01:06:30.806Z,1022.68922396
2018-07-21T01:06:43.197Z,1022.68922396
2018-07-21T01:06:55.730Z,1022.68922396
2018-07-21T01:07:08.137Z,1022.65536008
2018-07-21T01:07:20.556Z,1022.65536008
2018-07-21T01:07:32.972Z,1022.65536008
2018-07-21T01:07:45.368Z,1022.65536008
2018-07-21T01:07:57.774Z,1022.65536008
2018-07-21T01:08:10.206Z,1022.6214962
2018-07-21T01:08:22.615Z,1022.6214962
2018-07-21T01:08:35.033Z,1022.6214962
2018-07-21T01:08:47.448Z,1022.6214962
2018-07-21T01:08:59.936Z,1022.58763232
2018-07-21T01:09:12.361Z,1022.58763232
2018-07-21T01:09:24.768Z,1022.58763232
2018-07-21T01:09:37.168Z,1022.58763232
2018-07-21T01:09:49.575Z,1022.58763232
2018-07-21T01:10:01.962Z,1022.58763232
2018-07-21T01:10:14.356Z,1022.58763232
2018-07-21T01:10:26.769Z,1022.58763232
2018-07-21T01:10:39.155Z,1022.58763232
2018-07-21T01:10:51.549Z,1022.58763232
2018-07-21T01:11:04.428Z,1022.6214962
2018-07-21T01:11:17.652Z,1022.6214962
2018-07-21T01:11:30.047Z,1022.6214962
2018-07-21T01:11:42.479Z,1022.6214962
2018-07-21T01:11:54.879Z,1022.6214962
2018-07-21T01:12:07.304Z,1022.55376844
2018-07-21T01:12:19.719Z,1022.55376844
2018-07-21T01:12:32.121Z,1022.55376844
2018-07-21T01:12:44.531Z,1022.55376844
2018-07-21T01:12:57.008Z,1022.55376844
2018-07-21T01:13:09.446Z,1022.58763232
2018-07-21T01:13:21.854Z,1022.58763232
2018-07-21T01:13:34.269Z,1022.58763232
2018-07-21T01:13:46.690Z,1022.58763232
2018-07-21T01:13:59.144Z,1022.6214962
2018-07-21T01:14:11.560Z,1022.6214962
2018-07-21T01:14:23.972Z,1022.6214962
2018-07-21T01:14:36.369Z,1022.6214962
2018-07-21T01:14:48.773Z,1022.6214962
2018-07-21T01:15:01.257Z,1022.58763232
2018-07-21T01:15:13.658Z,1022.58763232
2018-07-21T01:15:26.068Z,1022.58763232
2018-07-21T01:15:38.484Z,1022.58763232
2018-07-21T01:15:50.884Z,1022.58763232
2018-07-21T01:16:03.313Z,1022.58763232
2018-07-21T01:16:15.719Z,1022.58763232
2018-07-21T01:16:28.122Z,1022.58763232
2018-07-21T01:16:40.555Z,1022.58763232
2018-07-21T01:16:52.953Z,1022.58763232
2018-07-21T01:17:05.398Z,1022.58763232
2018-07-21T01:17:17.798Z,1022.58763232
2018-07-21T01:17:30.191Z,1022.58763232
2018-07-21T01:17:42.598Z,1022.58763232
2018-07-21T01:17:54.987Z,1022.58763232
2018-07-21T01:18:07.622Z,1022.55376844
2018-07-21T01:18:20.038Z,1022.55376844
2018-07-21T01:18:32.449Z,1022.55376844
2018-07-21T01:18:44.834Z,1022.55376844
2018-07-21T01:18:57.247Z,1022.55376844
2018-07-21T01:19:09.644Z,1022.55376844
2018-07-21T01:19:22.039Z,1022.55376844
2018-07-21T01:19:34.485Z,1022.55376844
2018-07-21T01:19:46.875Z,1022.55376844
2018-07-21T01:19:59.365Z,1022.51990455
2018-07-21T01:20:11.783Z,1022.51990455
2018-07-21T01:20:24.170Z,1022.51990455
2018-07-21T01:20:36.555Z,1022.51990455
2018-07-21T01:20:48.950Z,1022.51990455
2018-07-21T01:21:01.350Z,1022.51990455
2018-07-21T01:21:13.925Z,1022.51990455
2018-07-21T01:21:26.317Z,1022.51990455
2018-07-21T01:21:38.703Z,1022.51990455
2018-07-21T01:21:51.086Z,1022.51990455
2018-07-21T01:22:03.488Z,1022.41831291
2018-07-21T01:22:15.895Z,1022.41831291
2018-07-21T01:22:28.289Z,1022.41831291
2018-07-21T01:22:40.677Z,1022.41831291
2018-07-21T01:22:53.083Z,1022.41831291
2018-07-21T01:23:05.573Z,1022.45217679
2018-07-21T01:23:17.975Z,1022.45217679
2018-07-21T01:23:30.365Z,1022.45217679
2018-07-21T01:23:42.759Z,1022.45217679
2018-07-21T01:23:55.146Z,1022.45217679
2018-07-21T01:24:07.561Z,1022.51990455
2018-07-21T01:24:19.947Z,1022.51990455
2018-07-21T01:24:32.379Z,1022.51990455
2018-07-21T01:24:44.938Z,1022.51990455
2018-07-21T01:24:57.346Z,1022.51990455
2018-07-21T01:25:09.757Z,1022.45217679
2018-07-21T01:25:22.134Z,1022.45217679
2018-07-21T01:25:34.535Z,1022.45217679
2018-07-21T01:25:46.952Z,1022.45217679
2018-07-21T01:25:59.353Z,1022.45217679
2018-07-21T01:26:11.756Z,1022.45217679
2018-07-21T01:26:24.151Z,1022.45217679
2018-07-21T01:26:36.564Z,1022.45217679
2018-07-21T01:26:48.950Z,1022.45217679
2018-07-21T01:27:01.386Z,1022.41831291
2018-07-21T01:27:13.785Z,1022.41831291
2018-07-21T01:27:26.180Z,1022.41831291
2018-07-21T01:27:38.559Z,1022.41831291
2018-07-21T01:27:50.955Z,1022.41831291
2018-07-21T01:28:03.354Z,1022.41831291
2018-07-21T01:28:15.745Z,1022.41831291
2018-07-21T01:28:28.129Z,1022.41831291
2018-07-21T01:28:40.511Z,1022.41831291
2018-07-21T01:28:52.927Z,1022.41831291
2018-07-21T01:29:05.375Z,1022.38444903
2018-07-21T01:29:17.790Z,1022.38444903
2018-07-21T01:29:30.173Z,1022.38444903
2018-07-21T01:29:42.627Z,1022.38444903
2018-07-21T01:29:55.019Z,1022.38444903
2018-07-21T01:30:07.470Z,1022.31672127
2018-07-21T01:30:19.859Z,1022.31672127
2018-07-21T01:30:32.247Z,1022.31672127
2018-07-21T01:30:44.625Z,1022.31672127
2018-07-21T01:30:57.131Z,1022.31672127
2018-07-21T01:31:09.536Z,1022.38444903
2018-07-21T01:31:21.927Z,1022.38444903
2018-07-21T01:31:34.324Z,1022.38444903
2018-07-21T01:31:46.721Z,1022.38444903
2018-07-21T01:31:59.190Z,1022.41831291
2018-07-21T01:32:11.626Z,1022.41831291
2018-07-21T01:32:24.036Z,1022.41831291
2018-07-21T01:32:36.466Z,1022.41831291
2018-07-21T01:32:48.869Z,1022.41831291
2018-07-21T01:33:01.263Z,1022.35058515
2018-07-21T01:33:13.668Z,1022.35058515
2018-07-21T01:33:26.123Z,1022.35058515
2018-07-21T01:33:38.504Z,1022.35058515
2018-07-21T01:33:50.922Z,1022.35058515
2018-07-21T01:34:03.315Z,1022.31672127
2018-07-21T01:34:15.732Z,1022.31672127
2018-07-21T01:34:28.163Z,1022.31672127
2018-07-21T01:34:40.543Z,1022.31672127
2018-07-21T01:34:52.952Z,1022.31672127
2018-07-21T01:35:05.361Z,1022.28285738
2018-07-21T01:35:17.758Z,1022.28285738
2018-07-21T01:35:30.193Z,1022.28285738
2018-07-21T01:35:42.604Z,1022.28285738
2018-07-21T01:35:55.004Z,1022.28285738
2018-07-21T01:36:07.407Z,1022.35058515
2018-07-21T01:36:19.897Z,1022.35058515
2018-07-21T01:36:32.282Z,1022.35058515
2018-07-21T01:36:44.690Z,1022.35058515
2018-07-21T01:36:57.167Z,1022.35058515
2018-07-21T01:37:09.560Z,1022.28285738
2018-07-21T01:37:21.951Z,1022.28285738
2018-07-21T01:37:34.338Z,1022.28285738
2018-07-21T01:37:46.717Z,1022.28285738
2018-07-21T01:37:59.133Z,1022.31672127
2018-07-21T01:38:11.524Z,1022.31672127
2018-07-21T01:38:23.912Z,1022.31672127
2018-07-21T01:38:36.292Z,1022.31672127
2018-07-21T01:38:48.679Z,1022.31672127
2018-07-21T01:39:01.138Z,1022.31672127
2018-07-21T01:39:13.547Z,1022.31672127
2018-07-21T01:39:25.943Z,1022.31672127
2018-07-21T01:39:38.338Z,1022.31672127
2018-07-21T01:39:50.729Z,1022.31672127
2018-07-21T01:40:03.139Z,1022.35058515
2018-07-21T01:40:15.531Z,1022.35058515
2018-07-21T01:40:27.913Z,1022.35058515
2018-07-21T01:40:40.285Z,1022.35058515
2018-07-21T01:40:52.687Z,1022.35058515
2018-07-21T01:41:05.118Z,1022.31672127
2018-07-21T01:41:17.509Z,1022.31672127
2018-07-21T01:41:29.915Z,1022.31672127
2018-07-21T01:41:42.312Z,1022.31672127
2018-07-21T01:41:54.693Z,1022.31672127
2018-07-21T01:42:07.098Z,1022.35058515
2018-07-21T01:42:19.489Z,1022.35058515
2018-07-21T01:42:31.872Z,1022.35058515
2018-07-21T01:42:44.242Z,1022.35058515
2018-07-21T01:42:56.620Z,1022.35058515
2018-07-21T01:43:09.020Z,1022.31672127
2018-07-21T01:43:21.431Z,1022.31672127
2018-07-21T01:43:33.825Z,1022.31672127
2018-07-21T01:43:46.472Z,1022.31672127
2018-07-21T01:43:58.856Z,1022.31672127
2018-07-21T01:44:11.245Z,1022.28285738
2018-07-21T01:44:23.647Z,1022.28285738
2018-07-21T01:44:36.036Z,1022.28285738
2018-07-21T01:44:48.424Z,1022.28285738
2018-07-21T01:45:00.821Z,1022.35058515
2018-07-21T01:45:13.219Z,1022.35058515
2018-07-21T01:45:25.612Z,1022.35058515
2018-07-21T01:45:37.995Z,1022.35058515
2018-07-21T01:45:50.388Z,1022.35058515
2018-07-21T01:46:02.787Z,1022.31672127
2018-07-21T01:46:15.172Z,1022.31672127
2018-07-21T01:46:27.563Z,1022.31672127
2018-07-21T01:46:39.964Z,1022.31672127
2018-07-21T01:46:52.358Z,1022.31672127
2018-07-21T01:47:04.776Z,1022.31672127
2018-07-21T01:47:17.175Z,1022.31672127
2018-07-21T01:47:29.608Z,1022.31672127
2018-07-21T01:47:41.999Z,1022.31672127
2018-07-21T01:47:54.401Z,1022.31672127
2018-07-21T01:48:06.796Z,1022.31672127
2018-07-21T01:48:19.202Z,1022.31672127
2018-07-21T01:48:31.625Z,1022.31672127
2018-07-21T01:48:44.055Z,1022.31672127
2018-07-21T01:48:56.651Z,1022.31672127
2018-07-21T01:49:09.053Z,1022.28285738
2018-07-21T01:49:21.534Z,1022.28285738
2018-07-21T01:49:33.957Z,1022.28285738
2018-07-21T01:49:46.351Z,1022.28285738
2018-07-21T01:49:58.755Z,1022.28285738
2018-07-21T01:50:11.175Z,1022.21512962
2018-07-21T01:50:23.559Z,1022.21512962
2018-07-21T01:50:35.952Z,1022.21512962
2018-07-21T01:50:48.349Z,1022.21512962
2018-07-21T01:51:00.721Z,1022.31672127
2018-07-21T01:51:13.122Z,1022.31672127
2018-07-21T01:51:25.545Z,1022.31672127
2018-07-21T01:51:37.927Z,1022.31672127
2018-07-21T01:51:50.321Z,1022.31672127
2018-07-21T01:52:02.709Z,1022.35058515
2018-07-21T01:52:15.097Z,1022.35058515
2018-07-21T01:52:27.498Z,1022.35058515
2018-07-21T01:52:39.910Z,1022.35058515
2018-07-21T01:52:52.338Z,1022.35058515
2018-07-21T01:53:04.752Z,1022.38444903
2018-07-21T01:53:17.137Z,1022.38444903
2018-07-21T01:53:29.545Z,1022.38444903
2018-07-21T01:53:41.966Z,1022.38444903
2018-07-21T01:53:54.393Z,1022.38444903
2018-07-21T01:54:06.803Z,1022.35058515
2018-07-21T01:54:19.435Z,1022.35058515
2018-07-21T01:54:31.831Z,1022.35058515
2018-07-21T01:54:44.228Z,1022.35058515
2018-07-21T01:54:56.615Z,1022.35058515
2018-07-21T01:55:09.009Z,1022.35058515
2018-07-21T01:55:21.472Z,1022.35058515
2018-07-21T01:55:33.866Z,1022.35058515
2018-07-21T01:55:46.268Z,1022.35058515
2018-07-21T01:55:58.671Z,1022.35058515
2018-07-21T01:56:11.084Z,1022.48604067
2018-07-21T01:56:23.528Z,1022.48604067
2018-07-21T01:56:35.971Z,1022.48604067
2018-07-21T01:56:48.360Z,1022.48604067
2018-07-21T01:57:00.747Z,1022.41831291
2018-07-21T01:57:13.150Z,1022.41831291
2018-07-21T01:57:25.544Z,1022.41831291
2018-07-21T01:57:37.991Z,1022.41831291
2018-07-21T01:57:50.487Z,1022.41831291
2018-07-21T01:58:02.903Z,1022.38444903
2018-07-21T01:58:15.310Z,1022.38444903
2018-07-21T01:58:27.704Z,1022.38444903
2018-07-21T01:58:40.109Z,1022.38444903
2018-07-21T01:58:52.523Z,1022.38444903
2018-07-21T01:59:04.940Z,1022.38444903
2018-07-21T01:59:17.674Z,1022.38444903
2018-07-21T01:59:30.080Z,1022.38444903
2018-07-21T01:59:42.488Z,1022.38444903
2018-07-21T01:59:54.871Z,1022.38444903
2018-07-21T02:00:07.292Z,1022.48604067
2018-07-21T02:00:19.721Z,1022.48604067
2018-07-21T02:00:32.412Z,1022.48604067
2018-07-21T02:00:44.850Z,1022.48604067
2018-07-21T02:00:57.257Z,1022.48604067
2018-07-21T02:01:09.684Z,1022.55376844
2018-07-21T02:01:22.095Z,1022.55376844
2018-07-21T02:01:34.491Z,1022.55376844
2018-07-21T02:01:46.881Z,1022.55376844
2018-07-21T02:01:59.457Z,1022.55376844
2018-07-21T02:02:11.860Z,1022.55376844
2018-07-21T02:02:24.247Z,1022.55376844
2018-07-21T02:02:36.641Z,1022.55376844
2018-07-21T02:02:49.036Z,1022.55376844
2018-07-21T02:03:01.445Z,1022.55376844
2018-07-21T02:03:13.853Z,1022.55376844
2018-07-21T02:03:26.272Z,1022.55376844
2018-07-21T02:03:38.659Z,1022.55376844
2018-07-21T02:03:51.257Z,1022.55376844
2018-07-21T02:04:03.658Z,1022.55376844
2018-07-21T02:04:16.092Z,1022.55376844
2018-07-21T02:04:28.497Z,1022.55376844
2018-07-21T02:04:40.895Z,1022.55376844
2018-07-21T02:04:53.279Z,1022.55376844
2018-07-21T02:05:05.704Z,1022.6214962
2018-07-21T02:05:18.108Z,1022.6214962
2018-07-21T02:05:30.498Z,1022.6214962
2018-07-21T02:05:42.918Z,1022.6214962
2018-07-21T02:05:55.308Z,1022.6214962
2018-07-21T02:06:07.701Z,1022.58763232
2018-07-21T02:06:20.112Z,1022.58763232
2018-07-21T02:06:32.509Z,1022.58763232
2018-07-21T02:06:44.899Z,1022.58763232
2018-07-21T02:06:57.281Z,1022.58763232
2018-07-21T02:07:09.691Z,1022.6214962
2018-07-21T02:07:22.121Z,1022.6214962